Mariner — WDI4275 — position and weather

sailwx.info

Track history (hours):
 
Tides and Currents Weather Stations Pressure Air Temp Water Temp Dewpoint Dewpoint Depression Visibility Wind Speed Wind Dir Waves Ship Positions

Mariner

Owner: Central Boat Rentals, Inc., Morgan City, LA. More information available from US FCC via Universal Licensing System and Coast Guard Vessel Documentation Center.

Last reported at 2018-May-21 13:15 UTC. Time now 2018-May-22 00:13 UTC.
Position N 29°56' W 093°10'.

Length 5 m; draft 2 m.

Type: Towing. MMSI: 267014280.

Date/timePositionNaut miles runAvg speedWind from/ knotsBaromVisibWave heightAir tempDewpointWater temp
2018-May-21 13:15N 29°56' W 093°10'1 5.2
2018-May-21 13:00N 29°57' W 093°10'3 5.3
2018-May-21 12:30N 29°59' W 093°13'1 1.9
2018-May-21 12:00N 29°60' W 093°13'2 4.0
2018-May-21 11:30N 30°02' W 093°14'2 4.7
2018-May-21 11:00N 30°04' W 093°16'2 4.8
2018-May-21 10:30N 30°05' W 093°18'1 1.2
2018-May-21 10:00N 30°06' W 093°18'0 0.9
2018-May-21 09:30N 30°06' W 093°18'2 4.0
2018-May-21 09:01N 30°04' W 093°20'2 4.9
2018-May-21 08:30N 30°02' W 093°20'3 5.1
2018-May-21 08:00N 29°59' W 093°20'3 5.2
2018-May-21 07:30N 29°57' W 093°20'3 5.3
2018-May-21 07:00N 29°54' W 093°21'4 0.4
2018-May-20 20:28N 29°58' W 093°20'3 6.2
2018-May-20 20:00N 30°01' W 093°20'3 6.2
2018-May-20 19:30N 30°04' W 093°20'2 4.1
2018-May-20 19:00N 30°06' W 093°18'2 4.9
2018-May-20 18:31N 30°04' W 093°16'3 6.1
2018-May-20 18:01N 30°01' W 093°14'3 6.3
2018-May-20 17:30N 29°59' W 093°12'3 6.5
2018-May-20 17:00N 29°56' W 093°10'123 3.1
2018-May-19 00:42N 29°32' W 090°50'1 5.2
2018-May-19 00:29N 29°32' W 090°49'2 5.1
2018-May-19 00:01N 29°32' W 090°46'2 4.6
2018-May-18 23:30N 29°34' W 090°44'2 3.1
2018-May-18 23:00N 29°34' W 090°43'2 4.6
2018-May-18 22:30N 29°31' W 090°42'3 5.6
2018-May-18 22:00N 29°29' W 090°43'4 5.6
2018-May-18 21:22N 29°25' W 090°43'0 0.0
2018-May-18 05:27N 29°25' W 090°44'3 6.9
2018-May-18 05:00N 29°28' W 090°43'3 6.9
2018-May-18 04:30N 29°31' W 090°42'3 6.1
2018-May-18 04:00N 29°34' W 090°43'3 5.6
2018-May-18 03:30N 29°33' W 090°46'3 6.4
2018-May-18 02:59N 29°32' W 090°49'  
2018-May-15 04:15N 29°32' W 090°51'2 6.3
2018-May-15 04:00N 29°32' W 090°49'3 6.1
2018-May-15 03:30N 29°32' W 090°46'3 5.5
2018-May-15 03:00N 29°34' W 090°44'2 4.3
2018-May-15 02:30N 29°32' W 090°42'3 6.1
2018-May-15 02:00N 29°29' W 090°43'3 6.1
2018-May-15 01:28N 29°26' W 090°43'  
2018-May-12 19:46N 29°26' W 090°43'1 5.3
2018-May-12 19:30N 29°27' W 090°43'3 5.4
2018-May-12 19:00N 29°30' W 090°43'3 5.4
2018-May-12 18:31N 29°32' W 090°42'2 3.6
2018-May-12 18:01N 29°34' W 090°43'2 4.9
2018-May-12 17:31N 29°33' W 090°46'2 4.6
2018-May-12 17:00N 29°32' W 090°48'  
Track history (hours):
 
Tides and Currents Weather Stations Pressure Air Temp Water Temp Dewpoint Dewpoint Depression Visibility Wind Speed Wind Dir Waves Ship Positions

Mariner

Owner: Central Boat Rentals, Inc., Morgan City, LA. More information available from US FCC via Universal Licensing System and Coast Guard Vessel Documentation Center.

Last reported at 2018-May-21 13:15 UTC. Time now 2018-May-22 00:13 UTC.
Position N 29°56' W 093°10'.

Length 5 m; draft 2 m.

Type: Towing. MMSI: 267014280.

Date/timePositionNaut miles runAvg speedWind from/ knotsBaromVisibWave heightAir tempDewpointWater temp
2018-May-21 13:15N 29°56' W 093°10'1 5.2
2018-May-21 13:00N 29°57' W 093°10'3 5.3
2018-May-21 12:30N 29°59' W 093°13'1 1.9
2018-May-21 12:00N 29°60' W 093°13'2 4.0
2018-May-21 11:30N 30°02' W 093°14'2 4.7
2018-May-21 11:00N 30°04' W 093°16'2 4.8
2018-May-21 10:30N 30°05' W 093°18'1 1.2
2018-May-21 10:00N 30°06' W 093°18'0 0.9
2018-May-21 09:30N 30°06' W 093°18'2 4.0
2018-May-21 09:01N 30°04' W 093°20'2 4.9
2018-May-21 08:30N 30°02' W 093°20'3 5.1
2018-May-21 08:00N 29°59' W 093°20'3 5.2
2018-May-21 07:30N 29°57' W 093°20'3 5.3
2018-May-21 07:00N 29°54' W 093°21'4 0.4
2018-May-20 20:28N 29°58' W 093°20'3 6.2
2018-May-20 20:00N 30°01' W 093°20'3 6.2
2018-May-20 19:30N 30°04' W 093°20'2 4.1
2018-May-20 19:00N 30°06' W 093°18'2 4.9
2018-May-20 18:31N 30°04' W 093°16'3 6.1
2018-May-20 18:01N 30°01' W 093°14'3 6.3
2018-May-20 17:30N 29°59' W 093°12'3 6.5
2018-May-20 17:00N 29°56' W 093°10'123 3.1
2018-May-19 00:42N 29°32' W 090°50'1 5.2
2018-May-19 00:29N 29°32' W 090°49'2 5.1
2018-May-19 00:01N 29°32' W 090°46'2 4.6
2018-May-18 23:30N 29°34' W 090°44'2 3.1
2018-May-18 23:00N 29°34' W 090°43'2 4.6
2018-May-18 22:30N 29°31' W 090°42'3 5.6
2018-May-18 22:00N 29°29' W 090°43'4 5.6
2018-May-18 21:22N 29°25' W 090°43'0 0.0
2018-May-18 05:27N 29°25' W 090°44'3 6.9
2018-May-18 05:00N 29°28' W 090°43'3 6.9
2018-May-18 04:30N 29°31' W 090°42'3 6.1
2018-May-18 04:00N 29°34' W 090°43'3 5.6
2018-May-18 03:30N 29°33' W 090°46'3 6.4
2018-May-18 02:59N 29°32' W 090°49'  
2018-May-15 04:15N 29°32' W 090°51'2 6.3
2018-May-15 04:00N 29°32' W 090°49'3 6.1
2018-May-15 03:30N 29°32' W 090°46'3 5.5
2018-May-15 03:00N 29°34' W 090°44'2 4.3
2018-May-15 02:30N 29°32' W 090°42'3 6.1
2018-May-15 02:00N 29°29' W 090°43'3 6.1
2018-May-15 01:28N 29°26' W 090°43'  
2018-May-12 19:46N 29°26' W 090°43'1 5.3
2018-May-12 19:30N 29°27' W 090°43'3 5.4
2018-May-12 19:00N 29°30' W 090°43'3 5.4
2018-May-12 18:31N 29°32' W 090°42'2 3.6
2018-May-12 18:01N 29°34' W 090°43'2 4.9
2018-May-12 17:31N 29°33' W 090°46'2 4.6
2018-May-12 17:00N 29°32' W 090°48'  

Dump ship's entire track history